Time;durP1;ratioP1;P1;durP2;ratioP2;P2;SDS_P1;SDS_P2;PMS_P1;PMS_P2;Temp;Humidity;BMP_temperature;BMP_pressure;BME280_temperature;BME280_humidity;BME280_pressure;Samples;Min_cycle;Max_cycle;Signal;HPM_P1;HPM_P2
2023/04/03 00:00:49;;;;;;;6.70;1.50;;;;;;;-2.42;100.00;102404.16;6270218;22;20016;-69
2023/04/03 00:03:17;;;;;;;16.92;2.47;;;;;;;-2.40;100.00;102399.72;6269932;22;20004;-71
2023/04/03 00:05:46;;;;;;;10.55;1.88;;;;;;;-2.38;100.00;102399.69;6270667;22;20004;-70
2023/04/03 00:08:12;;;;;;;6.20;2.33;;;;;;;-2.28;100.00;102408.22;6252388;22;20068;-70
2023/04/03 00:10:39;;;;;;;12.90;2.75;;;;;;;-2.37;100.00;102409.31;6270958;22;20004;-71
2023/04/03 00:13:06;;;;;;;19.42;2.13;;;;;;;-2.40;100.00;102405.00;6270361;22;20071;-69
2023/04/03 00:15:34;;;;;;;11.73;2.05;;;;;;;-2.38;100.00;102408.44;6270118;22;20015;-70
2023/04/03 00:18:01;;;;;;;6.30;1.60;;;;;;;-2.45;100.00;102406.00;6270443;22;20020;-71
2023/04/03 00:20:28;;;;;;;14.57;2.13;;;;;;;-2.43;100.00;102410.31;6269964;22;20030;-71
2023/04/03 00:22:54;;;;;;;7.85;1.88;;;;;;;-2.42;100.00;102409.41;6269498;22;20019;-69
2023/04/03 00:25:21;;;;;;;8.68;1.65;;;;;;;-2.47;100.00;102405.19;6270206;22;20035;-70
2023/04/03 00:27:48;;;;;;;9.50;1.95;;;;;;;-2.47;100.00;102408.66;6269946;22;20023;-71
2023/04/03 00:30:17;;;;;;;8.70;1.95;;;;;;;-2.46;100.00;102410.38;6267060;22;20023;-71
2023/04/03 00:32:43;;;;;;;8.30;1.63;;;;;;;-2.43;100.00;102415.56;6267872;22;20023;-70
2023/04/03 00:35:10;;;;;;;8.90;1.70;;;;;;;-2.44;100.00;102412.97;6269565;22;20051;-70
2023/04/03 00:37:37;;;;;;;8.43;2.20;;;;;;;-2.41;100.00;102410.25;6270556;22;20023;-70
2023/04/03 00:40:04;;;;;;;12.90;2.60;;;;;;;-2.46;100.00;102410.38;6269194;22;20023;-71
2023/04/03 00:42:31;;;;;;;6.93;1.58;;;;;;;-2.46;100.00;102420.91;6268418;22;20032;-70
2023/04/03 00:44:57;;;;;;;7.53;2.00;;;;;;;-2.49;100.00;102407.81;6269461;22;20012;-71
2023/04/03 00:47:24;;;;;;;9.73;2.03;;;;;;;-2.53;100.00;102408.78;6270645;22;20020;-71
2023/04/03 00:49:52;;;;;;;14.23;2.42;;;;;;;-2.54;100.00;102409.69;6269944;22;20023;-71
2023/04/03 00:52:23;;;;;;;10.40;1.90;;;;;;;-2.52;100.00;102409.66;6229591;22;20032;-71
2023/04/03 00:54:54;;;;;;;12.90;1.85;;;;;;;-2.51;100.00;102414.00;6269488;22;20031;-71
2023/04/03 00:57:22;;;;;;;7.18;1.55;;;;;;;-2.50;100.00;102407.88;6270145;22;20020;-71
2023/04/03 00:59:51;;;;;;;10.85;1.95;;;;;;;-2.54;100.00;102420.22;6268739;22;20060;-71
2023/04/03 01:02:18;;;;;;;14.82;2.33;;;;;;;-2.62;100.00;102409.00;6269639;22;20027;-71
2023/04/03 01:04:47;;;;;;;9.07;2.08;;;;;;;-2.60;100.00;102417.72;6270564;22;20006;-71
2023/04/03 01:07:31;;;;;;;5.45;1.70;;;;;;;-2.50;100.00;102421.00;6271080;22;20012;-70
2023/04/03 01:10:00;;;;;;;15.35;2.22;;;;;;;-2.54;100.00;102412.31;6230145;22;20031;-71
2023/04/03 01:12:36;;;;;;;7.28;2.05;;;;;;;-2.54;100.00;102411.47;6269881;22;20027;-71
2023/04/03 01:15:08;;;;;;;9.23;1.80;;;;;;;-2.55;100.00;102421.09;6266812;22;20039;-71
2023/04/03 01:17:38;;;;;;;8.48;1.80;;;;;;;-2.60;100.00;102418.56;6269924;22;20439;-70
2023/04/03 01:20:11;;;;;;;11.90;1.70;;;;;;;-2.67;100.00;102416.13;6269868;22;20004;-71
2023/04/03 01:22:58;;;;;;;9.55;1.67;;;;;;;-2.57;100.00;102415.88;6268106;22;20055;-70
2023/04/03 01:25:26;;;;;;;9.00;2.05;;;;;;;-2.54;100.00;102412.31;6270071;22;20018;-71
2023/04/03 01:27:53;;;;;;;7.90;1.77;;;;;;;-2.54;100.00;102419.34;6269744;22;20015;-71
2023/04/03 01:30:23;;;;;;;8.65;2.03;;;;;;;-2.62;100.00;102416.88;6269618;22;20008;-71
2023/04/03 01:32:50;;;;;;;7.50;1.65;;;;;;;-2.66;100.00;102412.59;6269977;22;20023;-71
2023/04/03 01:35:16;;;;;;;11.18;2.35;;;;;;;-2.65;100.00;102412.56;6268745;22;20034;-70
2023/04/03 01:37:43;;;;;;;8.07;1.63;;;;;;;-2.61;100.00;102418.63;6267741;22;20024;-70
2023/04/03 01:40:10;;;;;;;11.15;2.30;;;;;;;-2.63;100.00;102423.88;6267118;23;20054;-69
2023/04/03 01:42:36;;;;;;;13.23;2.47;;;;;;;-2.59;100.00;102424.69;6267208;23;20055;-69
2023/04/03 01:45:03;;;;;;;9.60;2.22;;;;;;;-2.66;100.00;102420.47;6267579;23;20004;-70
2023/04/03 01:47:29;;;;;;;7.95;1.77;;;;;;;-2.64;100.00;102427.44;6266767;23;20024;-70
2023/04/03 01:49:56;;;;;;;11.35;2.03;;;;;;;-2.59;100.00;102430.81;6267980;23;20051;-70
2023/04/03 01:52:22;;;;;;;11.18;1.73;;;;;;;-2.58;100.00;102423.78;6253696;22;20073;-70
2023/04/03 01:54:50;;;;;;;7.55;1.98;;;;;;;-2.66;100.00;102433.59;6264651;23;20039;-70
2023/04/03 01:57:16;;;;;;;7.78;1.98;;;;;;;-2.65;100.00;102440.56;6265986;23;20024;-68
2023/04/03 01:59:43;;;;;;;7.85;1.83;;;;;;;-2.57;100.00;102442.16;6267142;23;20008;-69
2023/04/03 02:02:12;;;;;;;14.23;2.97;;;;;;;-2.57;100.00;102443.94;6266774;23;20031;-69
2023/04/03 02:04:38;;;;;;;15.00;2.70;;;;;;;-2.64;100.00;102443.19;6266970;23;20015;-70
2023/04/03 02:07:05;;;;;;;10.70;2.10;;;;;;;-2.66;100.00;102446.75;6260432;23;20035;-70
2023/04/03 02:09:31;;;;;;;10.80;2.08;;;;;;;-2.62;100.00;102445.78;6267665;23;20023;-70
2023/04/03 02:11:58;;;;;;;12.18;2.10;;;;;;;-2.63;100.00;102444.06;6268824;22;20019;-70
2023/04/03 02:14:27;;;;;;;7.35;1.77;;;;;;;-2.65;100.00;102445.84;6269065;22;20020;-70
2023/04/03 02:16:54;;;;;;;9.95;1.63;;;;;;;-2.64;100.00;102450.22;6269312;22;20006;-71
2023/04/03 02:19:20;;;;;;;13.48;2.00;;;;;;;-2.70;100.00;102445.94;6270188;22;20020;-70
2023/04/03 02:21:47;;;;;;;12.23;2.97;;;;;;;-2.73;100.00;102442.50;6268264;22;20008;-69
2023/04/03 02:24:13;;;;;;;7.45;1.92;;;;;;;-2.70;100.00;102445.09;6268245;22;20039;-70
2023/04/03 02:26:39;;;;;;;8.48;1.80;;;;;;;-2.73;100.00;102443.38;6268590;22;20023;-71
2023/04/03 02:29:06;;;;;;;13.10;2.83;;;;;;;-2.74;100.00;102448.69;6264132;22;20004;-71
2023/04/03 02:31:32;;;;;;;9.52;1.67;;;;;;;-2.81;100.00;102443.53;6268726;22;20052;-69
2023/04/03 02:33:59;;;;;;;5.45;1.85;;;;;;;-2.83;100.00;102442.69;6267603;22;20055;-71
2023/04/03 02:36:25;;;;;;;8.52;1.88;;;;;;;-2.82;100.00;102454.94;6269996;22;20008;-70
2023/04/03 02:38:52;;;;;;;12.35;2.40;;;;;;;-2.84;100.00;102462.00;6269189;22;20024;-71
2023/04/03 02:41:19;;;;;;;13.05;2.30;;;;;;;-2.84;100.00;102469.00;6268216;22;20068;-71
2023/04/03 02:43:45;;;;;;;12.35;2.47;;;;;;;-2.87;100.00;102461.19;6270591;22;20008;-69
2023/04/03 02:46:13;;;;;;;7.38;1.77;;;;;;;-2.86;100.00;102473.41;6269965;22;20031;-69
2023/04/03 02:48:40;;;;;;;9.52;2.10;;;;;;;-2.89;100.00;102470.84;6270961;22;20105;-71
2023/04/03 02:51:07;;;;;;;10.70;1.63;;;;;;;-2.87;100.00;102477.81;6271094;22;20019;-71
2023/04/03 02:53:33;;;;;;;10.13;1.95;;;;;;;-2.90;100.00;102483.13;6269497;22;20047;-68
2023/04/03 02:56:00;;;;;;;14.15;2.50;;;;;;;-2.91;100.00;102481.38;6267598;23;20035;-69
2023/04/03 02:58:26;;;;;;;12.93;1.80;;;;;;;-2.84;100.00;102480.38;6268922;23;20047;-69
2023/04/03 03:00:53;;;;;;;8.32;1.90;;;;;;;-2.87;100.00;102477.81;6255261;23;20084;-69
2023/04/03 03:03:20;;;;;;;9.38;2.47;;;;;;;-2.89;100.00;102484.88;6267989;23;20099;-69
2023/04/03 03:05:47;;;;;;;12.82;2.05;;;;;;;-2.93;100.00;102475.28;6266672;23;20019;-68
2023/04/03 03:08:14;;;;;;;13.38;3.35;;;;;;;-2.91;100.00;102478.75;6266928;23;20016;-68
2023/04/03 03:10:40;;;;;;;11.00;2.05;;;;;;;-2.88;100.00;102481.34;6266807;23;20030;-68
2023/04/03 03:13:07;;;;;;;9.20;1.83;;;;;;;-2.93;100.00;102484.94;6265989;23;20068;-68
2023/04/03 03:15:34;;;;;;;12.43;1.90;;;;;;;-3.01;100.00;102487.72;6266867;23;20050;-69
2023/04/03 03:18:00;;;;;;;14.80;2.53;;;;;;;-3.02;100.00;102482.50;6266369;23;20348;-69
2023/04/03 03:20:27;;;;;;;12.27;2.00;;;;;;;-3.01;100.00;102490.34;6266291;23;20047;-70
2023/04/03 03:22:53;;;;;;;8.43;1.85;;;;;;;-2.96;100.00;102493.75;6266403;23;20024;-69
2023/04/03 03:25:20;;;;;;;7.50;1.45;;;;;;;-2.98;100.00;102495.53;6267049;23;20059;-70
2023/04/03 03:27:46;;;;;;;9.30;2.03;;;;;;;-2.95;100.00;102498.09;6265074;23;20047;-69
2023/04/03 03:30:13;;;;;;;9.50;1.75;;;;;;;-2.94;100.00;102491.94;6248350;22;20047;-69
2023/04/03 03:32:40;;;;;;;11.93;1.90;;;;;;;-3.07;100.00;102496.56;6242960;23;20008;-69
2023/04/03 03:35:06;;;;;;;7.78;1.38;;;;;;;-3.05;100.00;102494.78;6260815;22;20028;-70
2023/04/03 03:37:33;;;;;;;9.63;1.90;;;;;;;-3.05;100.00;102491.31;6266631;23;20008;-68
2023/04/03 03:39:59;;;;;;;13.50;2.50;;;;;;;-3.08;100.00;102499.22;6267830;23;20024;-69
2023/04/03 03:42:26;;;;;;;8.95;1.63;;;;;;;-3.07;100.00;102501.81;6266263;23;20027;-68
2023/04/03 03:44:52;;;;;;;14.05;1.98;;;;;;;-3.09;100.00;102500.13;6265476;23;20030;-68
2023/04/03 03:47:20;;;;;;;9.18;2.10;;;;;;;-3.08;100.00;102499.22;6266440;23;20032;-68
2023/04/03 03:49:46;;;;;;;7.35;1.90;;;;;;;-3.08;100.00;102501.84;6267103;23;20031;-68
2023/04/03 03:52:13;;;;;;;16.98;2.25;;;;;;;-3.09;100.00;102498.38;6266754;23;20039;-69
2023/04/03 03:54:39;;;;;;;12.52;2.38;;;;;;;-3.09;100.00;102505.38;6266565;23;20075;-68
2023/04/03 03:57:06;;;;;;;6.47;1.55;;;;;;;-3.08;100.00;102504.47;6264693;23;20024;-69
2023/04/03 03:59:32;;;;;;;6.70;1.70;;;;;;;-3.09;100.00;102500.13;6267370;23;20031;-68
2023/04/03 04:01:59;;;;;;;12.77;3.22;;;;;;;-3.12;100.00;102500.19;6267583;23;20025;-69
2023/04/03 04:04:25;;;;;;;11.48;2.10;;;;;;;-3.19;100.00;102498.56;6256286;22;20020;-68
2023/04/03 04:06:52;;;;;;;8.05;1.52;;;;;;;-3.17;100.00;102494.16;6267536;22;20031;-69
2023/04/03 04:09:19;;;;;;;10.00;2.20;;;;;;;-3.18;100.00;102497.66;6266836;23;20076;-69
2023/04/03 04:11:45;;;;;;;13.95;1.80;;;;;;;-3.18;100.00;102492.41;6266759;23;20030;-69
2023/04/03 04:14:13;;;;;;;7.30;2.10;;;;;;;-3.13;100.00;102494.06;6266004;23;20099;-70
2023/04/03 04:16:39;;;;;;;10.93;2.50;;;;;;;-3.21;100.00;102500.34;6266919;23;20004;-69
2023/04/03 04:19:06;;;;;;;12.60;2.33;;;;;;;-3.25;100.00;102498.69;6266696;23;20050;-70
2023/04/03 04:21:34;;;;;;;9.02;2.33;;;;;;;-3.24;100.00;102501.25;6267092;23;20011;-68
2023/04/03 04:24:00;;;;;;;8.98;2.25;;;;;;;-3.24;100.00;102497.78;6267803;22;20035;-69
2023/04/03 04:26:27;;;;;;;8.43;1.83;;;;;;;-3.17;100.00;102500.28;6268397;23;20008;-69
2023/04/03 04:28:53;;;;;;;7.80;2.33;;;;;;;-3.26;100.00;102505.69;6260676;22;20095;-70
2023/04/03 04:31:20;;;;;;;8.82;2.00;;;;;;;-3.22;100.00;102498.63;6266909;23;20015;-69
2023/04/03 04:33:47;;;;;;;11.40;2.42;;;;;;;-3.30;100.00;102504.88;6267919;23;20016;-69
2023/04/03 04:36:14;;;;;;;9.85;2.30;;;;;;;-3.26;100.00;102508.31;6266701;23;20032;-68
2023/04/03 04:38:42;;;;;;;11.43;2.75;;;;;;;-3.31;100.00;102504.88;6259949;23;20011;-68
2023/04/03 04:41:08;;;;;;;14.85;2.47;;;;;;;-3.28;100.00;102516.19;6267118;23;20008;-69
2023/04/03 04:43:35;;;;;;;11.18;2.03;;;;;;;-3.29;100.00;102511.84;6267314;23;20020;-67
2023/04/03 04:46:12;;;;;;;19.80;3.20;;;;;;;-3.31;100.00;102505.78;6267059;23;20023;-72
2023/04/03 04:48:40;;;;;;;10.25;2.10;;;;;;;-3.28;100.00;102513.56;6266668;23;20023;-68
2023/04/03 04:51:06;;;;;;;12.70;2.22;;;;;;;-3.34;100.00;102525.97;6267556;23;20054;-69
2023/04/03 04:53:33;;;;;;;13.48;2.00;;;;;;;-3.26;100.00;102528.44;6267172;23;20031;-69
2023/04/03 04:56:00;;;;;;;12.15;2.03;;;;;;;-3.22;100.00;102525.72;6267437;23;20007;-69
2023/04/03 04:58:26;;;;;;;8.80;1.83;;;;;;;-3.23;100.00;102523.16;6228877;23;20043;-70
2023/04/03 05:01:08;;;;;;;22.27;2.67;;;;;;;-3.13;100.00;102522.09;6267242;22;20024;-70
2023/04/03 05:03:35;;;;;;;10.20;2.08;;;;;;;-3.20;100.00;102533.59;6267808;23;20056;-71
2023/04/03 05:06:02;;;;;;;14.90;1.70;;;;;;;-3.28;100.00;102529.31;6267559;23;20008;-70
2023/04/03 05:08:29;;;;;;;18.27;2.53;;;;;;;-3.26;100.00;102520.56;6268621;23;20008;-70
2023/04/03 05:10:56;;;;;;;14.70;1.75;;;;;;;-3.23;100.00;102528.41;6250287;22;20012;-69
2023/04/03 05:13:22;;;;;;;7.70;1.67;;;;;;;-3.17;100.00;102538.78;6268573;22;20020;-70
2023/04/03 05:15:49;;;;;;;5.22;1.50;;;;;;;-3.14;100.00;102530.84;6269019;22;20023;-70
2023/04/03 05:18:15;;;;;;;7.90;2.03;;;;;;;-3.19;100.00;102530.06;6268312;22;20031;-70
2023/04/03 05:20:43;;;;;;;10.57;2.00;;;;;;;-3.18;100.00;102534.41;6266931;23;20480;-70
2023/04/03 05:23:11;;;;;;;15.43;1.90;;;;;;;-3.15;100.00;102539.63;6267160;23;20042;-70
2023/04/03 05:25:38;;;;;;;9.07;1.90;;;;;;;-3.13;100.00;102536.09;6267296;23;20010;-70
2023/04/03 05:28:05;;;;;;;12.20;2.28;;;;;;;-3.07;100.00;102542.97;6267362;22;20035;-70
2023/04/03 05:30:31;;;;;;;9.18;1.80;;;;;;;-3.01;100.00;102542.84;6269789;22;20015;-70
2023/04/03 05:32:59;;;;;;;13.88;2.03;;;;;;;-2.96;100.00;102546.28;6268875;22;20060;-71
2023/04/03 05:35:25;;;;;;;8.80;1.95;;;;;;;-3.03;100.00;102543.78;6268930;22;20008;-71
2023/04/03 05:51:25;;;;;;;4.38;1.42;;;;;;;-2.93;100.00;102561.97;6225557;22;20044;-74
2023/04/03 05:54:00;;;;;;;13.35;2.25;;;;;;;-2.85;100.00;102560.06;6263839;22;20031;-72
2023/04/03 06:15:55;;;;;;;10.43;2.60;;;;;;;-1.91;100.00;102577.41;6256626;22;20024;-71
2023/04/03 06:21:07;;;;;;;15.48;2.05;;;;;;;-1.65;100.00;102574.19;6258919;22;20008;-70
2023/04/03 06:23:34;;;;;;;8.82;1.65;;;;;;;-1.35;100.00;102578.75;6269494;22;20075;-72
2023/04/03 06:26:01;;;;;;;11.57;2.40;;;;;;;-1.13;100.00;102574.66;6244476;22;20010;-70
2023/04/03 06:28:27;;;;;;;7.18;1.80;;;;;;;-1.17;100.00;102584.41;6266496;22;20008;-70
2023/04/03 06:30:54;;;;;;;12.30;1.73;;;;;;;-0.72;100.00;102583.25;6270880;22;20115;-70
2023/04/03 06:33:20;;;;;;;6.95;1.63;;;;;;;-0.75;100.00;102578.06;6270503;22;20031;-69
2023/04/03 06:35:47;;;;;;;9.15;2.00;;;;;;;-0.49;100.00;102580.84;6269784;22;20012;-69
2023/04/03 06:38:13;;;;;;;12.02;2.00;;;;;;;-0.30;100.00;102589.09;6270952;22;20008;-69
2023/04/03 06:40:40;;;;;;;9.93;1.80;;;;;;;-0.13;100.00;102593.03;6241648;22;20024;-70
2023/04/03 06:43:07;;;;;;;13.55;1.60;;;;;;;0.11;100.00;102587.00;6271176;22;20056;-70
2023/04/03 06:45:33;;;;;;;12.27;1.98;;;;;;;0.30;98.74;102600.53;6270557;22;20016;-71
2023/04/03 06:48:01;;;;;;;6.32;1.77;;;;;;;0.16;98.54;102597.44;6270138;22;20010;-69
2023/04/03 06:50:27;;;;;;;11.90;1.88;;;;;;;0.51;95.06;102601.63;6271115;23;20015;-72
2023/04/03 06:52:54;;;;;;;13.80;2.15;;;;;;;0.70;87.65;102607.16;6270336;22;20068;-72
2023/04/03 06:55:21;;;;;;;7.00;1.50;;;;;;;0.42;83.93;102613.31;6266324;23;20036;-72
2023/04/03 06:57:47;;;;;;;5.22;1.73;;;;;;;0.31;83.85;102610.16;6268446;23;20024;-73
2023/04/03 07:00:16;;;;;;;8.30;1.48;;;;;;;0.53;84.40;102616.50;6268525;22;20027;-72
2023/04/03 07:02:42;;;;;;;9.82;1.88;;;;;;;0.56;82.89;102614.69;6264268;23;20004;-72
2023/04/03 07:05:09;;;;;;;9.18;1.45;;;;;;;0.50;82.44;102627.19;6268496;23;20028;-73
2023/04/03 07:07:35;;;;;;;11.95;1.95;;;;;;;0.27;80.82;102624.38;6267805;23;20024;-73
2023/04/03 07:10:02;;;;;;;7.28;1.90;;;;;;;0.34;80.75;102633.84;6267067;22;20032;-72
2023/04/03 07:12:29;;;;;;;9.88;2.00;;;;;;;0.15;80.23;102630.00;6265274;23;20008;-72
2023/04/03 07:14:55;;;;;;;8.82;1.95;;;;;;;0.49;79.22;102633.34;6266788;23;20027;-72
2023/04/03 07:17:22;;;;;;;10.07;2.05;;;;;;;0.81;78.71;102631.44;6266847;23;20027;-72
2023/04/03 07:19:49;;;;;;;7.40;1.77;;;;;;;1.19;74.54;102632.81;6267573;23;20024;-72
2023/04/03 07:22:16;;;;;;;10.60;1.58;;;;;;;0.99;70.99;102625.56;6253834;23;20028;-72
2023/04/03 07:24:42;;;;;;;5.05;1.45;;;;;;;1.22;70.72;102626.56;6267546;23;20079;-72
2023/04/03 07:27:09;;;;;;;6.82;1.27;;;;;;;1.24;68.07;102624.75;6241672;23;20027;-72
2023/04/03 07:29:36;;;;;;;6.15;1.83;;;;;;;1.83;66.97;102640.25;6267726;22;20012;-72
2023/04/03 07:32:03;;;;;;;12.20;1.67;;;;;;;1.79;62.16;102630.72;6264377;23;20040;-74
2023/04/03 07:34:30;;;;;;;12.45;1.50;;;;;;;1.40;63.62;102635.63;6265763;23;20011;-73
2023/04/03 07:36:57;;;;;;;5.53;1.27;;;;;;;1.47;64.90;102634.50;6267774;22;20028;-73
2023/04/03 07:39:24;;;;;;;7.30;1.50;;;;;;;1.01;63.27;102634.28;6266614;23;20024;-73
2023/04/03 07:41:51;;;;;;;7.35;1.88;;;;;;;1.18;63.20;102638.16;6268222;22;20012;-72
2023/04/03 07:44:17;;;;;;;3.42;1.10;;;;;;;0.88;62.02;102645.31;6266875;23;20020;-74
2023/04/03 07:46:44;;;;;;;4.70;0.73;;;;;;;0.65;62.26;102646.09;6268067;23;20024;-72
2023/04/03 07:49:11;;;;;;;10.80;1.40;;;;;;;0.70;61.41;102641.50;6267725;23;20039;-73
2023/04/03 07:51:37;;;;;;;5.57;1.05;;;;;;;0.13;63.56;102637.13;6267336;23;20024;-73
2023/04/03 07:54:04;;;;;;;5.95;1.27;;;;;;;0.27;64.29;102650.78;6266238;23;20044;-73
2023/04/03 07:56:31;;;;;;;7.22;1.40;;;;;;;-0.26;65.89;102650.53;6266269;23;20158;-72
2023/04/03 07:58:58;;;;;;;10.05;1.55;;;;;;;-0.35;66.58;102656.09;6267472;23;20040;-72
2023/04/03 08:01:24;;;;;;;5.55;1.15;;;;;;;-0.51;67.93;102653.84;6266949;23;20019;-72
2023/04/03 08:03:51;;;;;;;7.82;1.60;;;;;;;-1.00;68.41;102649.84;6265839;22;20028;-73
2023/04/03 08:06:18;;;;;;;7.80;1.83;;;;;;;-0.94;69.96;102656.75;6265686;23;20076;-72
2023/04/03 08:08:58;;;;;;;7.90;1.50;;;;;;;-0.87;69.56;102646.94;6264954;23;20036;-73
2023/04/03 08:11:26;;;;;;;8.20;1.50;;;;;;;-0.69;69.19;102644.66;6267291;23;20031;-72
2023/04/03 08:13:52;;;;;;;6.78;1.35;;;;;;;0.20;68.92;102638.69;6264993;23;20015;-73
2023/04/03 08:16:22;;;;;;;5.20;1.38;;;;;;;1.11;62.85;102641.94;6265752;23;20028;-73
2023/04/03 08:18:49;;;;;;;7.13;1.50;;;;;;;0.83;63.38;102640.19;6262693;23;20027;-73
2023/04/03 08:21:16;;;;;;;10.43;1.88;;;;;;;0.58;63.53;102649.84;6259322;23;20024;-73
2023/04/03 08:23:43;;;;;;;7.30;1.35;;;;;;;0.42;64.15;102645.00;6267847;22;20024;-72
2023/04/03 08:26:15;;;;;;;8.77;1.30;;;;;;;-0.15;66.65;102645.84;6267154;23;20038;-73
2023/04/03 08:28:42;;;;;;;8.32;1.70;;;;;;;-0.18;65.26;102648.56;6239046;23;20020;-73
2023/04/03 08:31:11;;;;;;;8.07;1.70;;;;;;;-0.19;67.04;102641.56;6265072;22;20031;-73
2023/04/03 08:33:39;;;;;;;8.88;1.58;;;;;;;-0.32;66.02;102650.72;6254525;23;20008;-73
2023/04/03 08:36:07;;;;;;;11.00;1.23;;;;;;;-0.37;66.28;102642.94;6266496;23;20035;-73
2023/04/03 08:38:36;;;;;;;5.22;1.38;;;;;;;-0.35;67.47;102642.91;6267223;22;20004;-73
2023/04/03 08:41:13;;;;;;;12.05;1.70;;;;;;;-0.26;67.34;102642.63;6267454;23;20028;-73
2023/04/03 08:44:12;;;;;;;3.58;1.15;;;;;;;-0.61;67.28;102636.53;6263805;23;20044;-73
2023/04/03 08:46:54;;;;;;;6.65;2.05;;;;;;;-0.48;67.53;102637.94;6264438;23;20031;-72
2023/04/03 08:49:32;;;;;;;2.90;1.08;;;;;;;-0.75;65.12;102634.28;6263980;23;20054;-71
2023/04/03 08:52:03;;;;;;;6.20;1.38;;;;;;;-0.79;65.77;102632.63;6232674;23;20068;-73
2023/04/03 08:54:34;;;;;;;6.28;1.35;;;;;;;-0.58;67.02;102639.09;6259699;23;20055;-72
2023/04/03 08:57:05;;;;;;;8.18;0.95;;;;;;;-0.40;66.68;102635.09;6266602;23;20024;-72
2023/04/03 08:59:37;;;;;;;5.47;1.38;;;;;;;-0.40;65.58;102639.50;6265045;23;20028;-72
2023/04/03 09:02:35;;;;;;;6.78;1.10;;;;;;;-0.53;64.89;102637.22;6264992;23;20016;-72
2023/04/03 09:05:11;;;;;;;8.25;1.25;;;;;;;-0.76;65.57;102632.56;6264025;23;20009;-72
2023/04/03 09:07:44;;;;;;;8.07;1.60;;;;;;;-0.78;67.42;102637.03;6254447;23;20047;-72
2023/04/03 09:10:15;;;;;;;3.38;1.00;;;;;;;-0.69;68.16;102641.16;6265645;23;20008;-72
2023/04/03 09:12:53;;;;;;;13.65;1.65;;;;;;;-0.37;67.98;102642.94;6266655;23;20020;-72
2023/04/03 09:15:24;;;;;;;5.47;1.45;;;;;;;0.69;65.34;102632.72;6264972;23;20020;-72
2023/04/03 09:18:10;;;;;;;6.45;1.55;;;;;;;1.61;59.43;102639.28;6264336;23;20085;-73
2023/04/03 09:20:51;;;;;;;5.68;1.33;;;;;;;2.13;58.01;102630.34;6264436;23;20085;-72
2023/04/03 09:23:24;;;;;;;8.48;1.48;;;;;;;2.31;56.30;102631.41;6265580;23;20083;-72
2023/04/03 09:25:56;;;;;;;6.57;1.30;;;;;;;1.45;54.14;102633.69;6263777;22;20047;-71
2023/04/03 09:28:23;;;;;;;6.40;1.55;;;;;;;0.80;54.09;102628.88;6256293;23;20043;-71
2023/04/03 09:30:49;;;;;;;4.70;1.08;;;;;;;0.64;55.01;102636.41;6260632;23;20016;-72
2023/04/03 09:33:17;;;;;;;4.45;0.90;;;;;;;1.34;54.93;102627.94;6263062;23;20084;-72
2023/04/03 09:35:44;;;;;;;4.13;1.10;;;;;;;2.08;54.77;102634.06;6263293;23;20453;-72
2023/04/03 09:38:18;;;;;;;12.45;1.27;;;;;;;3.14;49.50;102633.34;6264814;23;20024;-73
2023/04/03 09:40:51;;;;;;;7.25;1.40;;;;;;;2.38;48.92;102624.94;6263754;23;20031;-72
2023/04/03 09:43:17;;;;;;;4.55;1.30;;;;;;;1.89;50.08;102629.44;6261445;23;20076;-72
2023/04/03 09:45:45;;;;;;;5.32;1.45;;;;;;;2.87;48.42;102630.91;6263294;23;20024;-72
2023/04/03 09:48:12;;;;;;;9.00;1.27;;;;;;;1.51;50.61;102627.31;6263362;22;20020;-72
2023/04/03 09:50:55;;;;;;;3.65;1.25;;;;;;;1.71;51.31;102615.13;6264515;23;20051;-72
2023/04/03 09:53:40;;;;;;;5.93;1.40;;;;;;;1.57;51.09;102627.09;6259281;23;20035;-72
2023/04/03 09:56:13;;;;;;;3.53;1.13;;;;;;;1.20;50.68;102618.69;6264708;23;20026;-72
2023/04/03 09:58:41;;;;;;;3.38;1.35;;;;;;;1.28;52.19;102622.84;6239445;23;20028;-72
2023/04/03 10:01:33;;;;;;;4.05;1.35;;;;;;;1.09;52.88;102620.84;6266627;23;20012;-72
2023/04/03 10:04:10;;;;;;;4.05;1.15;;;;;;;0.77;53.44;102624.53;6265002;23;20099;-71
2023/04/03 10:06:43;;;;;;;4.78;0.95;;;;;;;0.69;54.04;102616.00;6263275;23;20019;-73
2023/04/03 10:09:25;;;;;;;8.13;1.30;;;;;;;0.84;54.88;102614.63;6267070;22;20065;-71
2023/04/03 10:12:01;;;;;;;4.22;1.10;;;;;;;0.99;54.77;102612.38;6259497;23;20032;-71
2023/04/03 10:14:29;;;;;;;5.53;1.67;;;;;;;1.85;52.42;102606.63;6259654;22;20031;-72
2023/04/03 10:17:36;;;;;;;4.30;1.10;;;;;;;2.14;52.17;102616.16;6258719;23;20090;-74
2023/04/03 10:20:26;;;;;;;9.23;1.40;;;;;;;3.11;51.02;102601.66;6257345;22;20020;-74
2023/04/03 10:23:04;;;;;;;8.27;1.45;;;;;;;2.87;48.27;102609.69;6257584;23;20026;-72
2023/04/03 10:25:47;;;;;;;6.07;1.10;;;;;;;2.86;49.58;102599.19;6250069;23;20031;-72
2023/04/03 10:28:45;;;;;;;4.15;1.20;;;;;;;3.97;47.49;102592.50;6264555;23;20420;-73
2023/04/03 10:31:20;;;;;;;5.40;1.48;;;;;;;3.70;47.21;102597.28;6264253;23;20055;-73
2023/04/03 10:34:05;;;;;;;7.35;1.20;;;;;;;3.29;46.58;102586.72;6264812;23;20062;-72
2023/04/03 10:37:02;;;;;;;3.38;1.10;;;;;;;2.99;46.95;102589.75;6259938;23;20034;-72
2023/04/03 10:39:34;;;;;;;5.72;2.05;;;;;;;3.69;47.00;102595.53;6261231;23;20031;-73
2023/04/03 10:42:10;;;;;;;5.97;1.30;;;;;;;2.94;46.74;102586.44;6262459;23;20016;-73
2023/04/03 10:44:51;;;;;;;4.03;1.10;;;;;;;1.45;48.96;102586.94;6261039;23;20028;-73
2023/04/03 10:47:46;;;;;;;11.13;1.23;;;;;;;1.31;50.31;102583.09;6235096;23;20087;-72
2023/04/03 10:50:38;;;;;;;4.13;1.23;;;;;;;1.01;50.60;102577.94;6191781;23;20051;-73
2023/04/03 10:53:17;;;;;;;7.70;1.17;;;;;;;0.67;51.09;102580.84;6231940;23;20031;-72
2023/04/03 10:55:51;;;;;;;3.90;1.10;;;;;;;0.65;51.18;102573.00;6258560;23;20046;-72
2023/04/03 10:58:29;;;;;;;7.70;1.10;;;;;;;0.91;50.98;102571.25;6260691;23;20044;-72
2023/04/03 11:01:05;;;;;;;6.85;1.08;;;;;;;1.24;50.79;102577.16;6257501;23;20094;-72
2023/04/03 11:03:36;;;;;;;7.55;1.20;;;;;;;1.38;50.18;102572.22;6257019;23;20020;-73
2023/04/03 11:06:09;;;;;;;5.50;1.00;;;;;;;1.66;49.71;102560.63;6258598;23;20398;-73
2023/04/03 11:08:39;;;;;;;4.90;1.20;;;;;;;2.07;49.52;102571.47;6262982;23;20012;-73
2023/04/03 11:11:11;;;;;;;3.58;1.30;;;;;;;1.90;49.30;102559.69;6259766;23;20028;-73
2023/04/03 11:13:52;;;;;;;2.97;1.00;;;;;;;1.51;49.88;102555.88;6261879;23;20042;-72
2023/04/03 11:16:30;;;;;;;7.57;2.25;;;;;;;1.63;50.12;102561.59;6253994;23;20043;-73
2023/04/03 11:19:23;;;;;;;4.03;1.23;;;;;;;1.46;50.61;102551.63;6258191;23;20024;-73
2023/04/03 11:22:02;;;;;;;3.95;1.35;;;;;;;1.23;50.03;102559.56;6255799;23;20024;-73
2023/04/03 11:24:32;;;;;;;4.72;1.20;;;;;;;1.47;51.96;102548.09;6258758;23;20058;-72
2023/04/03 11:27:03;;;;;;;3.47;0.90;;;;;;;1.47;51.24;102553.38;6260986;23;20020;-72
2023/04/03 11:29:37;;;;;;;5.97;1.30;;;;;;;1.39;50.71;102550.13;6259498;23;20020;-73
2023/04/03 11:32:43;;;;;;;5.63;1.00;;;;;;;1.52;51.53;102547.91;6260156;23;20273;-73
2023/04/03 11:35:10;;;;;;;5.78;1.30;;;;;;;1.66;51.33;102552.69;6226543;23;20020;-74
2023/04/03 11:37:46;;;;;;;2.17;0.98;;;;;;;1.68;50.82;102540.25;6255467;23;20020;-73
2023/04/03 11:40:15;;;;;;;8.38;1.42;;;;;;;1.99;50.60;102547.06;6263638;23;20028;-73
2023/04/03 11:42:45;;;;;;;5.13;1.20;;;;;;;1.94;51.50;102541.94;6246800;23;20024;-73
2023/04/03 11:45:21;;;;;;;3.72;1.10;;;;;;;1.84;51.92;102543.19;6261301;23;20020;-73
2023/04/03 11:47:51;;;;;;;6.40;1.35;;;;;;;1.86;52.34;102541.34;6263850;23;20024;-70
2023/04/03 11:50:36;;;;;;;7.65;1.40;;;;;;;1.57;52.17;102551.25;6270279;22;20011;-71
2023/04/03 11:53:06;;;;;;;6.68;1.73;;;;;;;1.42;51.65;102543.88;6269664;22;20027;-70
2023/04/03 11:55:32;;;;;;;10.23;1.70;;;;;;;1.41;52.31;102545.66;6270541;22;20011;-71
2023/04/03 11:57:59;;;;;;;3.58;1.20;;;;;;;1.18;52.97;102550.91;6270364;22;20019;-71
2023/04/03 12:00:54;;;;;;;5.38;1.27;;;;;;;1.36;53.11;102542.31;6270829;22;20001;-70
2023/04/03 12:03:27;;;;;;;4.35;1.23;;;;;;;2.07;52.10;102537.03;6266210;22;20007;-71
2023/04/03 12:06:04;;;;;;;6.20;1.30;;;;;;;1.95;52.72;102539.22;6267780;22;20008;-70
2023/04/03 12:08:33;;;;;;;3.95;1.45;;;;;;;1.77;52.78;102536.41;6269854;22;20020;-71
2023/04/03 12:11:09;;;;;;;5.78;1.17;;;;;;;1.83;52.58;102531.75;6270518;22;20004;-70